createdAt,value
2023-03-19T00:00:35.088Z,271.3392
2023-03-19T00:05:36.711Z,223.22245
2023-03-19T00:10:38.458Z,240.5253
2023-03-19T00:15:40.098Z,218.7186
2023-03-19T00:20:41.672Z,179.18535
2023-03-19T00:25:43.287Z,171.08855
2023-03-19T00:30:44.984Z,170.1473
2023-03-19T00:35:46.659Z,162.4384
2023-03-19T00:40:48.247Z,157.0532
2023-03-19T00:45:49.911Z,144.27285
2023-03-19T00:50:51.636Z,134.7936
2023-03-19T00:55:53.473Z,126.4762
2023-03-19T01:00:55.167Z,121.4599
2023-03-19T01:05:56.857Z,105.74735
2023-03-19T01:10:58.491Z,98.40735
2023-03-19T01:16:00.086Z,87.9507
2023-03-19T01:21:01.685Z,79.6333
2023-03-19T01:26:03.394Z,67.0374
2023-03-19T01:31:05.018Z,56.21185
2023-03-19T01:36:06.824Z,44.59335
2023-03-19T01:41:08.497Z,35.1141
2023-03-19T01:46:10.342Z,26.61225
2023-03-19T01:51:12.155Z,22.3889
2023-03-19T01:56:13.840Z,10.58595
2023-03-19T02:01:15.581Z,7.52445
2023-03-19T02:06:17.460Z,3.85445
2023-03-19T02:11:19.151Z,3.48555
2023-03-19T02:16:20.896Z,1.16185
2023-03-19T02:21:22.660Z,0.88715
2023-03-19T02:26:24.259Z,0
2023-03-19T02:31:25.909Z,0
2023-03-19T02:36:27.642Z,0
2023-03-19T02:41:29.266Z,0
2023-03-19T02:46:30.966Z,0
2023-03-19T02:51:32.632Z,0
2023-03-19T02:56:34.216Z,0
2023-03-19T03:01:35.854Z,0
2023-03-19T03:06:37.466Z,0
2023-03-19T03:11:39.089Z,0
2023-03-19T03:16:40.753Z,0
2023-03-19T03:21:42.373Z,0
2023-03-19T03:26:44.038Z,0
2023-03-19T03:31:45.753Z,0
2023-03-19T03:36:47.472Z,0
2023-03-19T03:41:49.120Z,0
2023-03-19T03:46:50.885Z,0
2023-03-19T03:51:52.576Z,0
2023-03-19T03:56:54.185Z,0
2023-03-19T04:01:55.818Z,0
2023-03-19T04:06:57.500Z,0
2023-03-19T04:11:59.131Z,0
2023-03-19T04:17:00.744Z,0
2023-03-19T04:22:02.392Z,0
2023-03-19T04:27:03.986Z,0
2023-03-19T04:32:05.647Z,0
2023-03-19T04:37:07.289Z,0
2023-03-19T04:42:08.942Z,0
2023-03-19T04:47:10.632Z,0
2023-03-19T04:52:12.281Z,0
2023-03-19T04:57:13.898Z,0
2023-03-19T05:02:15.564Z,0
2023-03-19T05:07:17.217Z,0
2023-03-19T05:12:18.844Z,0
2023-03-19T05:17:20.455Z,0
2023-03-19T05:22:22.061Z,0
2023-03-19T05:27:23.668Z,0
2023-03-19T05:32:25.279Z,0
2023-03-19T05:37:26.966Z,0
2023-03-19T05:42:28.634Z,0
2023-03-19T05:47:30.259Z,0
2023-03-19T05:52:31.936Z,0
2023-03-19T05:57:33.556Z,0
2023-03-19T06:02:35.218Z,0
2023-03-19T06:07:36.941Z,0
2023-03-19T06:12:38.580Z,0
2023-03-19T06:17:40.205Z,0
2023-03-19T06:22:41.931Z,0
2023-03-19T06:27:43.559Z,0
2023-03-19T06:32:45.284Z,0
2023-03-19T06:37:47.069Z,0
2023-03-19T06:42:48.676Z,0
2023-03-19T06:47:52.401Z,0
2023-03-19T06:52:55.356Z,0
2023-03-19T06:57:56.994Z,0
2023-03-19T07:02:58.648Z,0
2023-03-19T07:08:00.407Z,0
2023-03-19T07:13:02.057Z,0
2023-03-19T07:18:03.614Z,0
2023-03-19T07:23:05.216Z,0
2023-03-19T07:28:06.851Z,0
2023-03-19T07:33:08.589Z,0
2023-03-19T07:38:10.416Z,0
2023-03-19T07:43:12.011Z,0
2023-03-19T07:48:13.626Z,0
2023-03-19T07:53:15.239Z,0
2023-03-19T07:58:16.921Z,0
2023-03-19T08:03:18.720Z,0
2023-03-19T08:08:20.408Z,0
2023-03-19T08:13:22.067Z,0
2023-03-19T08:18:23.764Z,0
2023-03-19T08:23:25.487Z,0
2023-03-19T08:28:27.276Z,0
2023-03-19T08:33:28.931Z,0
2023-03-19T08:38:30.571Z,0
2023-03-19T08:43:32.312Z,0
2023-03-19T08:48:33.924Z,0
2023-03-19T08:53:35.594Z,0
2023-03-19T08:58:37.270Z,0
2023-03-19T09:03:38.909Z,0
2023-03-19T09:08:40.536Z,0
2023-03-19T09:13:42.186Z,0
2023-03-19T09:18:43.837Z,0
2023-03-19T09:23:45.607Z,0
2023-03-19T09:28:47.227Z,0
2023-03-19T09:33:48.974Z,0
2023-03-19T09:38:50.871Z,0
2023-03-19T09:43:52.472Z,0
2023-03-19T09:48:54.087Z,0
2023-03-19T09:53:55.808Z,0
2023-03-19T09:58:57.584Z,0
2023-03-19T10:03:59.344Z,0
2023-03-19T10:09:00.926Z,0
2023-03-19T10:14:02.537Z,0
2023-03-19T10:19:04.431Z,0
2023-03-19T10:24:06.092Z,0
2023-03-19T10:29:07.769Z,0
2023-03-19T10:34:09.383Z,0
2023-03-19T10:39:11.029Z,0
2023-03-19T10:44:12.855Z,0
2023-03-19T10:49:14.519Z,0
2023-03-19T10:54:16.154Z,0
2023-03-19T10:59:17.888Z,0
2023-03-19T11:04:19.547Z,0
2023-03-19T11:09:21.165Z,0
2023-03-19T11:14:22.929Z,0
2023-03-19T11:19:24.585Z,0
2023-03-19T11:24:26.201Z,0
2023-03-19T11:29:27.921Z,0
2023-03-19T11:34:29.604Z,0
2023-03-19T11:39:31.263Z,0
2023-03-19T11:44:33.048Z,0
2023-03-19T11:49:34.816Z,0
2023-03-19T11:54:36.417Z,0
2023-03-19T11:59:38.139Z,0
2023-03-19T12:04:39.756Z,0
2023-03-19T12:09:41.421Z,0
2023-03-19T12:14:43.104Z,0
2023-03-19T12:19:44.767Z,0
2023-03-19T12:24:46.496Z,0
2023-03-19T12:29:48.130Z,0
2023-03-19T12:34:49.832Z,0
2023-03-19T12:39:51.488Z,0
2023-03-19T12:44:53.163Z,0
2023-03-19T12:49:54.773Z,0
2023-03-19T12:54:56.517Z,0
2023-03-19T12:59:58.133Z,0
2023-03-19T13:04:59.785Z,0
2023-03-19T13:10:01.567Z,0
2023-03-19T13:15:03.198Z,0
2023-03-19T13:20:05.041Z,0
2023-03-19T13:25:06.680Z,0
2023-03-19T13:30:08.278Z,0
2023-03-19T13:35:09.927Z,1.16185
2023-03-19T13:40:11.563Z,1.3463
2023-03-19T13:45:13.202Z,2.13325
2023-03-19T13:50:14.850Z,4.20725
2023-03-19T13:55:16.823Z,7.04525
2023-03-19T14:00:18.447Z,13.2234
2023-03-19T14:05:20.094Z,18.6086
2023-03-19T14:10:21.865Z,19.4757
2023-03-19T14:15:23.506Z,37.0879
2023-03-19T14:20:32.888Z,44.1883
2023-03-19T14:25:37.191Z,62.59345
2023-03-19T14:30:39.117Z,74.3964
2023-03-19T14:35:40.810Z,87.17675
2023-03-19T14:40:42.446Z,101.48785
2023-03-19T14:45:44.206Z,106.449
2023-03-19T14:50:45.863Z,122.4753
2023-03-19T14:55:47.833Z,178.0119
2023-03-19T15:00:49.535Z,401.29035
2023-03-19T15:05:51.199Z,363.72155
2023-03-19T15:10:52.827Z,242.95515
2023-03-19T15:15:54.611Z,234.3549
2023-03-19T15:20:56.308Z,269.87405
2023-03-19T15:25:58.185Z,303.5677
2023-03-19T15:31:09.979Z,323.8915
2023-03-19T15:36:20.289Z,364.889
2023-03-19T15:41:21.939Z,385.8213
2023-03-19T15:46:23.602Z,407.4001
2023-03-19T15:51:25.280Z,427.374
2023-03-19T15:56:27.005Z,460.7919
2023-03-19T16:01:28.943Z,492.93765
2023-03-19T16:06:30.648Z,574.67405
2023-03-19T16:11:32.382Z,512.98385
2023-03-19T16:16:34.071Z,529.5635
2023-03-19T16:21:35.862Z,578.30605
2023-03-19T16:26:37.500Z,619.17425
2023-03-19T16:31:39.209Z,611.6308
2023-03-19T16:36:40.955Z,615.4111
2023-03-19T16:41:42.559Z,617.5332
2023-03-19T16:46:44.405Z,596.93365
2023-03-19T16:51:46.194Z,596.47345
2023-03-19T16:56:47.904Z,583.63795
2023-03-19T17:01:49.604Z,569.08725
2023-03-19T17:06:51.285Z,553.17125
2023-03-19T17:11:53.030Z,538.71185
2023-03-19T17:16:54.713Z,540.92525
2023-03-19T17:21:56.397Z,567.46335
2023-03-19T17:26:58.182Z,613.5133
2023-03-19T17:31:59.828Z,648.6084
2023-03-19T17:37:01.542Z,703.1792
2023-03-19T17:42:03.174Z,752.4218
2023-03-19T17:47:04.796Z,765.6072
2023-03-19T17:52:06.439Z,761.77175
2023-03-19T17:57:08.126Z,778.09465
2023-03-19T18:02:09.770Z,767.12265
2023-03-19T18:07:11.406Z,756.4264
2023-03-19T18:12:13.010Z,722.01395
2023-03-19T18:17:14.676Z,721.16585
2023-03-19T18:22:16.318Z,684.1331
2023-03-19T18:27:17.886Z,658.6827
2023-03-19T18:32:19.681Z,641.7703
2023-03-19T18:37:21.276Z,581.8676
2023-03-19T18:42:22.935Z,550.07175
2023-03-19T18:47:24.586Z,508.5399
2023-03-19T18:52:26.316Z,509.7949
2023-03-19T18:57:27.951Z,492.99465
2023-03-19T19:02:29.867Z,471.2884
2023-03-19T19:07:31.549Z,488.7713
2023-03-19T19:12:33.064Z,524.05085
2023-03-19T19:17:34.634Z,563.44345
2023-03-19T19:22:36.287Z,601.10185
2023-03-19T19:27:38.000Z,630.498
2023-03-19T19:32:39.883Z,590.9381
2023-03-19T19:37:41.562Z,523.58695
2023-03-19T19:42:43.200Z,480.43305
2023-03-19T19:47:44.910Z,488.0678
2023-03-19T19:52:46.525Z,488.1058
2023-03-19T19:57:48.234Z,496.7921
2023-03-19T20:02:49.904Z,483.8273
2023-03-19T20:07:51.504Z,522.5011
2023-03-19T20:12:53.106Z,575.505
2023-03-19T20:17:54.781Z,574.21385
2023-03-19T20:22:56.438Z,568.22015
2023-03-19T20:27:58.129Z,560.825
2023-03-19T20:32:59.799Z,538.51025
2023-03-19T20:38:01.733Z,525.06625
2023-03-19T20:43:03.471Z,534.82125
2023-03-19T20:48:05.161Z,600.62265
2023-03-19T20:53:06.802Z,666.07415
2023-03-19T20:58:08.658Z,770.1063
2023-03-19T21:03:10.347Z,850.1085
2023-03-19T21:08:16.117Z,891.25245
2023-03-19T21:13:17.727Z,957.42275
2023-03-19T21:18:19.383Z,1003.04865
2023-03-19T21:23:21.046Z,983.997
2023-03-19T21:28:22.720Z,991.2077
2023-03-19T21:33:24.321Z,974.38845
2023-03-19T21:38:26.719Z,945.26805
2023-03-19T21:43:28.386Z,922.0862
2023-03-19T21:48:29.969Z,916.3511
2023-03-19T21:53:31.624Z,911.38995
2023-03-19T21:58:33.499Z,869.06515
2023-03-19T22:13:58.521Z,864.8608
2023-03-19T22:19:02.278Z,914.74805
2023-03-19T22:24:06.059Z,906.2842
2023-03-19T22:29:07.760Z,851.4928
2023-03-19T22:34:09.412Z,759.31875
2023-03-19T22:39:11.076Z,663.25225
2023-03-19T22:44:12.740Z,646.3607
2023-03-19T22:49:14.522Z,538.729
2023-03-19T22:54:16.400Z,526.0418
2023-03-19T22:59:18.052Z,506.21805
2023-03-19T23:04:19.717Z,478.48195
2023-03-19T23:09:21.553Z,400.1171
2023-03-19T23:14:29.994Z,360.1693
2023-03-19T23:19:32.189Z,337.87355
2023-03-19T23:24:34.112Z,267.73295
2023-03-19T23:29:35.793Z,240.3639
2023-03-19T23:34:53.626Z,238.4661
2023-03-19T23:39:58.495Z,257.0585
2023-03-19T23:45:00.288Z,281.8872
2023-03-19T23:50:03.440Z,261.7258
2023-03-19T23:55:05.153Z,274.59855
